Time;durP1;ratioP1;P1;durP2;ratioP2;P2;SDS_P1;SDS_P2;PMS_P1;PMS_P2;Temp;Humidity;BMP_temperature;BMP_pressure;BME280_temperature;BME280_humidity;BME280_pressure;Samples;Min_cycle;Max_cycle;Signal;HPM_P1;HPM_P2
2024/03/01 00:01:50;;;;;;;12.8;5.4;;;;;;;;;;;;;
2024/03/01 00:04:15;;;;;;;13.6;5.5;;;;;;;;;;;;;
2024/03/01 00:06:40;;;;;;;13.4;5.1;;;;;;;;;;;;;
2024/03/01 00:09:06;;;;;;;13.6;5.2;;;;;;;;;;;;;
2024/03/01 00:11:31;;;;;;;10.1;4.9;;;;;;;;;;;;;
2024/03/01 00:13:56;;;;;;;9.9;4.4;;;;;;;;;;;;;
2024/03/01 00:16:21;;;;;;;13.6;4.6;;;;;;;;;;;;;
2024/03/01 00:18:46;;;;;;;9;3.4;;;;;;;;;;;;;
2024/03/01 00:21:11;;;;;;;10.1;3.3;;;;;;;;;;;;;
2024/03/01 00:23:36;;;;;;;10.1;3.4;;;;;;;;;;;;;
2024/03/01 00:26:02;;;;;;;11;3.6;;;;;;;;;;;;;
2024/03/01 00:28:27;;;;;;;12.5;3.7;;;;;;;;;;;;;
2024/03/01 00:30:52;;;;;;;7.3;3.6;;;;;;;;;;;;;
2024/03/01 00:33:17;;;;;;;10;3.5;;;;;;;;;;;;;
2024/03/01 00:35:43;;;;;;;8.8;3.8;;;;;;;;;;;;;
2024/03/01 00:38:07;;;;;;;9.4;4.1;;;;;;;;;;;;;
2024/03/01 00:40:32;;;;;;;7.6;3.2;;;;;;;;;;;;;
2024/03/01 00:42:57;;;;;;;7.9;3.7;;;;;;;;;;;;;
2024/03/01 00:45:23;;;;;;;10.6;4.2;;;;;;;;;;;;;
2024/03/01 00:47:48;;;;;;;8.6;3.5;;;;;;;;;;;;;
2024/03/01 00:50:13;;;;;;;8.3;3.8;;;;;;;;;;;;;
2024/03/01 00:52:38;;;;;;;7.9;3.4;;;;;;;;;;;;;
2024/03/01 00:55:03;;;;;;;9.2;3.3;;;;;;;;;;;;;
2024/03/01 00:57:28;;;;;;;5;3.2;;;;;;;;;;;;;
2024/03/01 00:59:53;;;;;;;8.1;3.1;;;;;;;;;;;;;
2024/03/01 01:02:18;;;;;;;12.5;3.3;;;;;;;;;;;;;
2024/03/01 01:04:43;;;;;;;8;3;;;;;;;;;;;;;
2024/03/01 01:07:08;;;;;;;10.5;3.6;;;;;;;;;;;;;
2024/03/01 01:09:34;;;;;;;7.2;3.4;;;;;;;;;;;;;
2024/03/01 01:11:59;;;;;;;8;3.6;;;;;;;;;;;;;
2024/03/01 01:14:24;;;;;;;8.9;3.6;;;;;;;;;;;;;
2024/03/01 01:16:49;;;;;;;6.9;3.2;;;;;;;;;;;;;
2024/03/01 01:19:14;;;;;;;8.3;3.9;;;;;;;;;;;;;
2024/03/01 01:21:39;;;;;;;9;3.5;;;;;;;;;;;;;
2024/03/01 01:24:04;;;;;;;9.7;3.9;;;;;;;;;;;;;
2024/03/01 01:26:29;;;;;;;7.7;3.6;;;;;;;;;;;;;
2024/03/01 01:28:55;;;;;;;12.5;4;;;;;;;;;;;;;
2024/03/01 01:31:20;;;;;;;10.4;3.3;;;;;;;;;;;;;
2024/03/01 01:33:45;;;;;;;7.7;3.1;;;;;;;;;;;;;
2024/03/01 01:36:12;;;;;;;11.2;3.6;;;;;;;;;;;;;
2024/03/01 01:38:35;;;;;;;8;3.3;;;;;;;;;;;;;
2024/03/01 01:41:00;;;;;;;8.7;3.4;;;;;;;;;;;;;
2024/03/01 01:43:25;;;;;;;9.5;3.8;;;;;;;;;;;;;
2024/03/01 01:45:50;;;;;;;9.2;3;;;;;;;;;;;;;
2024/03/01 01:48:16;;;;;;;6.9;3.4;;;;;;;;;;;;;
2024/03/01 01:50:41;;;;;;;8.4;3.3;;;;;;;;;;;;;
2024/03/01 01:53:06;;;;;;;7.4;2.9;;;;;;;;;;;;;
2024/03/01 01:55:31;;;;;;;10.7;3;;;;;;;;;;;;;
2024/03/01 01:57:56;;;;;;;8.2;3.1;;;;;;;;;;;;;
2024/03/01 02:00:22;;;;;;;10.2;3;;;;;;;;;;;;;
2024/03/01 02:02:50;;;;;;;11.1;2.9;;;;;;;;;;;;;
2024/03/01 02:05:11;;;;;;;10.7;3.5;;;;;;;;;;;;;
2024/03/01 02:07:36;;;;;;;10;2.8;;;;;;;;;;;;;
2024/03/01 02:10:09;;;;;;;8.6;2.8;;;;;;;;;;;;;
2024/03/01 02:12:26;;;;;;;10;3.1;;;;;;;;;;;;;
2024/03/01 02:14:53;;;;;;;8.5;2.6;;;;;;;;;;;;;
2024/03/01 02:17:17;;;;;;;9.2;3.1;;;;;;;;;;;;;
2024/03/01 02:19:42;;;;;;;10;3.3;;;;;;;;;;;;;
2024/03/01 02:22:07;;;;;;;8;3.2;;;;;;;;;;;;;
2024/03/01 02:24:32;;;;;;;6.7;2.9;;;;;;;;;;;;;
2024/03/01 02:26:58;;;;;;;8.7;2.8;;;;;;;;;;;;;
2024/03/01 02:29:23;;;;;;;8.3;3;;;;;;;;;;;;;
2024/03/01 02:31:48;;;;;;;7.9;3;;;;;;;;;;;;;
2024/03/01 02:34:13;;;;;;;7.4;2.8;;;;;;;;;;;;;
2024/03/01 02:36:38;;;;;;;6.8;2.7;;;;;;;;;;;;;
2024/03/01 02:39:07;;;;;;;9.4;3.3;;;;;;;;;;;;;
2024/03/01 02:41:28;;;;;;;8.1;2.9;;;;;;;;;;;;;
2024/03/01 02:43:53;;;;;;;7.1;3;;;;;;;;;;;;;
2024/03/01 02:46:18;;;;;;;7.7;2.7;;;;;;;;;;;;;
2024/03/01 02:48:44;;;;;;;9.5;3.2;;;;;;;;;;;;;
2024/03/01 02:51:08;;;;;;;7.5;2.8;;;;;;;;;;;;;
2024/03/01 02:53:34;;;;;;;7;2.6;;;;;;;;;;;;;
2024/03/01 02:55:59;;;;;;;6.7;2.6;;;;;;;;;;;;;
2024/03/01 02:58:24;;;;;;;6.3;2.6;;;;;;;;;;;;;
2024/03/01 03:00:49;;;;;;;5.4;2.5;;;;;;;;;;;;;
2024/03/01 03:03:14;;;;;;;6;2.4;;;;;;;;;;;;;
2024/03/01 03:05:40;;;;;;;5.4;2.8;;;;;;;;;;;;;
2024/03/01 03:08:06;;;;;;;8;2.8;;;;;;;;;;;;;
2024/03/01 03:10:30;;;;;;;8.9;2.5;;;;;;;;;;;;;
2024/03/01 03:12:55;;;;;;;8;2.5;;;;;;;;;;;;;
2024/03/01 03:15:20;;;;;;;6.5;2.3;;;;;;;;;;;;;
2024/03/01 03:17:46;;;;;;;7.5;2.6;;;;;;;;;;;;;
2024/03/01 03:20:15;;;;;;;8.2;2.6;;;;;;;;;;;;;
2024/03/01 03:22:35;;;;;;;4.9;2.3;;;;;;;;;;;;;
2024/03/01 03:25:01;;;;;;;7.1;2.6;;;;;;;;;;;;;
2024/03/01 03:27:26;;;;;;;8.4;2.7;;;;;;;;;;;;;
2024/03/01 03:29:52;;;;;;;6.8;2.8;;;;;;;;;;;;;
2024/03/01 03:32:16;;;;;;;7.2;2.6;;;;;;;;;;;;;
2024/03/01 03:34:41;;;;;;;5.6;2.6;;;;;;;;;;;;;
2024/03/01 03:37:06;;;;;;;7.8;2.3;;;;;;;;;;;;;
2024/03/01 03:39:31;;;;;;;7.2;2.5;;;;;;;;;;;;;
2024/03/01 03:41:57;;;;;;;7.7;2.6;;;;;;;;;;;;;
2024/03/01 03:44:22;;;;;;;5.3;2.6;;;;;;;;;;;;;
2024/03/01 03:46:47;;;;;;;9.8;2.6;;;;;;;;;;;;;
2024/03/01 03:49:12;;;;;;;6.8;1.9;;;;;;;;;;;;;
2024/03/01 03:51:37;;;;;;;6.6;2.2;;;;;;;;;;;;;
2024/03/01 03:54:04;;;;;;;9.3;2.4;;;;;;;;;;;;;
2024/03/01 03:56:28;;;;;;;6.3;2.6;;;;;;;;;;;;;
2024/03/01 03:58:52;;;;;;;4.7;2.4;;;;;;;;;;;;;
2024/03/01 04:02:31;;;;;;;8.1;2.5;;;;;;;;;;;;;
2024/03/01 04:04:56;;;;;;;8.7;2.6;;;;;;;;;;;;;
2024/03/01 04:07:21;;;;;;;6.7;2.2;;;;;;;;;;;;;
2024/03/01 04:09:46;;;;;;;8;2.5;;;;;;;;;;;;;
2024/03/01 04:12:11;;;;;;;7.2;2.1;;;;;;;;;;;;;
2024/03/01 04:14:36;;;;;;;8;3.1;;;;;;;;;;;;;
2024/03/01 04:17:02;;;;;;;7.9;2.5;;;;;;;;;;;;;
2024/03/01 04:19:27;;;;;;;7.3;2.5;;;;;;;;;;;;;
2024/03/01 04:21:52;;;;;;;6.1;2.4;;;;;;;;;;;;;
2024/03/01 04:24:17;;;;;;;4.7;2.2;;;;;;;;;;;;;
2024/03/01 04:26:42;;;;;;;7.5;2.9;;;;;;;;;;;;;
2024/03/01 04:29:07;;;;;;;6.6;2.8;;;;;;;;;;;;;
2024/03/01 04:31:33;;;;;;;10.3;3.9;;;;;;;;;;;;;
2024/03/01 04:33:58;;;;;;;11.7;3.4;;;;;;;;;;;;;
2024/03/01 04:36:22;;;;;;;7;2.9;;;;;;;;;;;;;
2024/03/01 04:38:48;;;;;;;7.2;2.8;;;;;;;;;;;;;
2024/03/01 04:41:13;;;;;;;5.3;2.4;;;;;;;;;;;;;
2024/03/01 04:43:38;;;;;;;7;2.4;;;;;;;;;;;;;
2024/03/01 04:46:03;;;;;;;9;2.7;;;;;;;;;;;;;
2024/03/01 04:48:28;;;;;;;5.1;2.5;;;;;;;;;;;;;
2024/03/01 04:50:53;;;;;;;9.2;3;;;;;;;;;;;;;
2024/03/01 04:53:18;;;;;;;8.1;3.1;;;;;;;;;;;;;
2024/03/01 04:55:43;;;;;;;6.8;3;;;;;;;;;;;;;
2024/03/01 04:58:08;;;;;;;8.3;3.3;;;;;;;;;;;;;
2024/03/01 05:00:34;;;;;;;8.9;3;;;;;;;;;;;;;
2024/03/01 05:03:06;;;;;;;7;3;;;;;;;;;;;;;
2024/03/01 05:05:25;;;;;;;8.8;3.1;;;;;;;;;;;;;
2024/03/01 05:07:49;;;;;;;8.4;4;;;;;;;;;;;;;
2024/03/01 05:10:15;;;;;;;7.5;4.2;;;;;;;;;;;;;
2024/03/01 05:12:39;;;;;;;10.3;3.9;;;;;;;;;;;;;
2024/03/01 05:15:04;;;;;;;6.5;3.6;;;;;;;;;;;;;
2024/03/01 05:17:29;;;;;;;15;6.4;;;;;;;;;;;;;
2024/03/01 05:19:54;;;;;;;15;6.1;;;;;;;;;;;;;
2024/03/01 05:22:23;;;;;;;9.4;4.6;;;;;;;;;;;;;
2024/03/01 05:24:45;;;;;;;12.5;5.6;;;;;;;;;;;;;
2024/03/01 05:27:15;;;;;;;10.9;4.4;;;;;;;;;;;;;
2024/03/01 05:29:36;;;;;;;11.3;4.8;;;;;;;;;;;;;
2024/03/01 05:32:00;;;;;;;13.8;6;;;;;;;;;;;;;
2024/03/01 05:34:25;;;;;;;11.8;5.7;;;;;;;;;;;;;
2024/03/01 05:36:50;;;;;;;12.7;6;;;;;;;;;;;;;
2024/03/01 05:39:18;;;;;;;10.9;5.5;;;;;;;;;;;;;
2024/03/01 05:41:40;;;;;;;14.1;6.1;;;;;;;;;;;;;
2024/03/01 05:44:08;;;;;;;12.8;6.1;;;;;;;;;;;;;
2024/03/01 05:46:30;;;;;;;14.4;6.7;;;;;;;;;;;;;
2024/03/01 05:48:56;;;;;;;14.1;6.4;;;;;;;;;;;;;
2024/03/01 05:51:21;;;;;;;13.4;5.9;;;;;;;;;;;;;
2024/03/01 05:53:46;;;;;;;10.6;6;;;;;;;;;;;;;
2024/03/01 05:56:17;;;;;;;10.6;6.2;;;;;;;;;;;;;
2024/03/01 05:58:36;;;;;;;14.3;6.9;;;;;;;;;;;;;
2024/03/01 06:01:01;;;;;;;14.7;6.9;;;;;;;;;;;;;
2024/03/01 06:03:27;;;;;;;12.7;7;;;;;;;;;;;;;
2024/03/01 06:05:51;;;;;;;13.4;6.4;;;;;;;;;;;;;
2024/03/01 06:08:16;;;;;;;13.6;7;;;;;;;;;;;;;
2024/03/01 06:10:42;;;;;;;14.9;7.9;;;;;;;;;;;;;
2024/03/01 06:13:07;;;;;;;17.2;9;;;;;;;;;;;;;
2024/03/01 06:15:32;;;;;;;19;9.1;;;;;;;;;;;;;
2024/03/01 06:17:57;;;;;;;16.2;8;;;;;;;;;;;;;
2024/03/01 06:20:22;;;;;;;14.6;6.5;;;;;;;;;;;;;
2024/03/01 06:22:47;;;;;;;18.6;8.1;;;;;;;;;;;;;
2024/03/01 06:25:12;;;;;;;22.6;12.2;;;;;;;;;;;;;
2024/03/01 06:27:38;;;;;;;28;14.4;;;;;;;;;;;;;
2024/03/01 06:30:03;;;;;;;23.6;13.1;;;;;;;;;;;;;
2024/03/01 06:32:28;;;;;;;21.5;12.2;;;;;;;;;;;;;
2024/03/01 06:34:53;;;;;;;17.9;10.8;;;;;;;;;;;;;
2024/03/01 06:37:18;;;;;;;22.4;11.2;;;;;;;;;;;;;
2024/03/01 06:39:43;;;;;;;17.3;9;;;;;;;;;;;;;
2024/03/01 06:42:08;;;;;;;15.3;9.2;;;;;;;;;;;;;
2024/03/01 06:44:33;;;;;;;24.7;10;;;;;;;;;;;;;
2024/03/01 06:46:59;;;;;;;19.3;10;;;;;;;;;;;;;
2024/03/01 06:49:23;;;;;;;30.1;10.9;;;;;;;;;;;;;
2024/03/01 06:51:49;;;;;;;21.8;10.7;;;;;;;;;;;;;
2024/03/01 06:54:14;;;;;;;18.5;9.9;;;;;;;;;;;;;
2024/03/01 06:56:39;;;;;;;18.4;10;;;;;;;;;;;;;
2024/03/01 06:59:04;;;;;;;19.4;10.9;;;;;;;;;;;;;
2024/03/01 07:01:29;;;;;;;18.5;10.6;;;;;;;;;;;;;
2024/03/01 07:03:55;;;;;;;18.4;10.2;;;;;;;;;;;;;
2024/03/01 07:06:19;;;;;;;18.2;10.1;;;;;;;;;;;;;
2024/03/01 07:08:45;;;;;;;17.8;8.8;;;;;;;;;;;;;
2024/03/01 07:11:10;;;;;;;18.3;8.8;;;;;;;;;;;;;
2024/03/01 07:13:35;;;;;;;19.3;8.4;;;;;;;;;;;;;
2024/03/01 07:16:00;;;;;;;17.2;7.5;;;;;;;;;;;;;
2024/03/01 07:18:25;;;;;;;17.2;7.8;;;;;;;;;;;;;
2024/03/01 07:20:52;;;;;;;17;8.7;;;;;;;;;;;;;
2024/03/01 07:23:15;;;;;;;20.1;9.3;;;;;;;;;;;;;
2024/03/01 07:25:40;;;;;;;17.2;8.6;;;;;;;;;;;;;
2024/03/01 07:28:06;;;;;;;17;9;;;;;;;;;;;;;
2024/03/01 07:30:31;;;;;;;14.9;8.3;;;;;;;;;;;;;
2024/03/01 07:32:56;;;;;;;17.2;8.6;;;;;;;;;;;;;
2024/03/01 07:35:21;;;;;;;19.2;8.1;;;;;;;;;;;;;
2024/03/01 07:37:46;;;;;;;18;9.6;;;;;;;;;;;;;
2024/03/01 07:40:11;;;;;;;18;8.6;;;;;;;;;;;;;
2024/03/01 07:42:41;;;;;;;21.3;8.4;;;;;;;;;;;;;
2024/03/01 07:45:01;;;;;;;14.1;7.7;;;;;;;;;;;;;
2024/03/01 07:47:29;;;;;;;17.7;8.6;;;;;;;;;;;;;
2024/03/01 07:49:51;;;;;;;17.2;9.1;;;;;;;;;;;;;
2024/03/01 07:52:17;;;;;;;16.9;7.8;;;;;;;;;;;;;
2024/03/01 07:54:42;;;;;;;16.2;8.4;;;;;;;;;;;;;
2024/03/01 07:57:07;;;;;;;15.2;8.5;;;;;;;;;;;;;
2024/03/01 07:59:32;;;;;;;17.2;8.7;;;;;;;;;;;;;
2024/03/01 08:01:57;;;;;;;17.9;8.8;;;;;;;;;;;;;
2024/03/01 08:04:22;;;;;;;17;8.5;;;;;;;;;;;;;
2024/03/01 08:06:48;;;;;;;16.6;9;;;;;;;;;;;;;
2024/03/01 08:09:13;;;;;;;17.6;10.5;;;;;;;;;;;;;
2024/03/01 08:11:38;;;;;;;18.7;9.9;;;;;;;;;;;;;
2024/03/01 08:14:03;;;;;;;17.9;9.8;;;;;;;;;;;;;
2024/03/01 08:16:28;;;;;;;18.4;9.5;;;;;;;;;;;;;
2024/03/01 08:18:53;;;;;;;15.2;9.5;;;;;;;;;;;;;
2024/03/01 08:21:18;;;;;;;19;9.3;;;;;;;;;;;;;
2024/03/01 08:23:43;;;;;;;20.4;9.3;;;;;;;;;;;;;
2024/03/01 08:26:09;;;;;;;15.4;9.2;;;;;;;;;;;;;
2024/03/01 08:28:34;;;;;;;15.5;8.7;;;;;;;;;;;;;
2024/03/01 08:31:03;;;;;;;22.8;9.7;;;;;;;;;;;;;
2024/03/01 08:33:24;;;;;;;17.7;9.7;;;;;;;;;;;;;
2024/03/01 08:35:49;;;;;;;18;9.1;;;;;;;;;;;;;
2024/03/01 08:38:14;;;;;;;20.5;9.6;;;;;;;;;;;;;
2024/03/01 08:40:39;;;;;;;19.6;9.3;;;;;;;;;;;;;
2024/03/01 08:43:04;;;;;;;17.5;9.2;;;;;;;;;;;;;
2024/03/01 08:45:29;;;;;;;18;10.9;;;;;;;;;;;;;
2024/03/01 08:47:54;;;;;;;19;10.2;;;;;;;;;;;;;
2024/03/01 08:50:19;;;;;;;21.2;9.1;;;;;;;;;;;;;
2024/03/01 08:52:45;;;;;;;17;8.4;;;;;;;;;;;;;
2024/03/01 08:55:10;;;;;;;19.7;8.3;;;;;;;;;;;;;
2024/03/01 08:57:35;;;;;;;14.6;8.1;;;;;;;;;;;;;
2024/03/01 09:00:00;;;;;;;14.2;8;;;;;;;;;;;;;
2024/03/01 09:02:26;;;;;;;18.4;9.4;;;;;;;;;;;;;
2024/03/01 09:04:50;;;;;;;15.4;8.9;;;;;;;;;;;;;
2024/03/01 09:07:15;;;;;;;15.2;9.4;;;;;;;;;;;;;
2024/03/01 09:09:41;;;;;;;21.7;9.8;;;;;;;;;;;;;
2024/03/01 09:12:06;;;;;;;17.8;9.4;;;;;;;;;;;;;
2024/03/01 09:14:31;;;;;;;13.6;8.8;;;;;;;;;;;;;
2024/03/01 09:16:56;;;;;;;17.6;8.4;;;;;;;;;;;;;
2024/03/01 09:19:21;;;;;;;18.6;9.5;;;;;;;;;;;;;
2024/03/01 09:21:47;;;;;;;17.4;8.3;;;;;;;;;;;;;
2024/03/01 09:24:11;;;;;;;16.9;8.8;;;;;;;;;;;;;
2024/03/01 09:26:37;;;;;;;17.2;9.5;;;;;;;;;;;;;
2024/03/01 09:29:02;;;;;;;17.4;9.4;;;;;;;;;;;;;
2024/03/01 09:31:27;;;;;;;20.7;10.2;;;;;;;;;;;;;
2024/03/01 09:33:51;;;;;;;18.8;9.2;;;;;;;;;;;;;
2024/03/01 09:36:17;;;;;;;19.2;9.8;;;;;;;;;;;;;
2024/03/01 09:38:43;;;;;;;22.1;10.3;;;;;;;;;;;;;
2024/03/01 09:41:07;;;;;;;19.7;10.2;;;;;;;;;;;;;
2024/03/01 09:43:32;;;;;;;21;10.2;;;;;;;;;;;;;
2024/03/01 09:45:57;;;;;;;19.2;9.6;;;;;;;;;;;;;
2024/03/01 09:48:22;;;;;;;18.1;10;;;;;;;;;;;;;
2024/03/01 09:50:48;;;;;;;15.5;9.4;;;;;;;;;;;;;
2024/03/01 09:53:12;;;;;;;18.9;10.3;;;;;;;;;;;;;
2024/03/01 09:55:37;;;;;;;19.8;10;;;;;;;;;;;;;
2024/03/01 09:58:03;;;;;;;18.1;10;;;;;;;;;;;;;
2024/03/01 10:00:28;;;;;;;17.2;9.7;;;;;;;;;;;;;
2024/03/01 10:02:53;;;;;;;20.8;10.5;;;;;;;;;;;;;
2024/03/01 10:05:19;;;;;;;22;9.1;;;;;;;;;;;;;
2024/03/01 10:07:44;;;;;;;20.7;9.6;;;;;;;;;;;;;
2024/03/01 10:10:08;;;;;;;17.2;10;;;;;;;;;;;;;
2024/03/01 10:12:34;;;;;;;18.7;10.4;;;;;;;;;;;;;
2024/03/01 10:14:58;;;;;;;18.4;10.4;;;;;;;;;;;;;
2024/03/01 10:17:23;;;;;;;26.9;13;;;;;;;;;;;;;
2024/03/01 10:19:49;;;;;;;23.3;12.4;;;;;;;;;;;;;
2024/03/01 10:22:14;;;;;;;20.8;13.3;;;;;;;;;;;;;
2024/03/01 10:24:39;;;;;;;23.1;13.3;;;;;;;;;;;;;
2024/03/01 10:27:06;;;;;;;23.7;13.7;;;;;;;;;;;;;
2024/03/01 10:29:30;;;;;;;24.6;13.1;;;;;;;;;;;;;
2024/03/01 10:31:56;;;;;;;24.9;13.1;;;;;;;;;;;;;
2024/03/01 10:34:20;;;;;;;26;13.4;;;;;;;;;;;;;
2024/03/01 10:36:45;;;;;;;21.3;12.5;;;;;;;;;;;;;
2024/03/01 10:39:10;;;;;;;23.2;12.7;;;;;;;;;;;;;
2024/03/01 10:41:35;;;;;;;24.1;13.4;;;;;;;;;;;;;
2024/03/01 10:44:01;;;;;;;22.5;11.9;;;;;;;;;;;;;
2024/03/01 10:46:25;;;;;;;21.1;12.2;;;;;;;;;;;;;
2024/03/01 10:48:50;;;;;;;18.9;11;;;;;;;;;;;;;
2024/03/01 10:51:15;;;;;;;20.1;10.6;;;;;;;;;;;;;
2024/03/01 10:53:40;;;;;;;20.3;11.4;;;;;;;;;;;;;
2024/03/01 10:56:08;;;;;;;16.1;9.3;;;;;;;;;;;;;
2024/03/01 10:58:31;;;;;;;16;9.4;;;;;;;;;;;;;
2024/03/01 11:00:56;;;;;;;13.7;9.2;;;;;;;;;;;;;
2024/03/01 11:03:21;;;;;;;14.7;8.9;;;;;;;;;;;;;
2024/03/01 11:05:46;;;;;;;14.1;8.4;;;;;;;;;;;;;
2024/03/01 11:08:11;;;;;;;14.5;9;;;;;;;;;;;;;
2024/03/01 11:10:36;;;;;;;16.1;8.1;;;;;;;;;;;;;
2024/03/01 11:13:01;;;;;;;12.6;7.7;;;;;;;;;;;;;
2024/03/01 11:15:27;;;;;;;15.3;8;;;;;;;;;;;;;
2024/03/01 11:17:52;;;;;;;12.5;7.7;;;;;;;;;;;;;
2024/03/01 11:20:17;;;;;;;14.3;8.2;;;;;;;;;;;;;
2024/03/01 11:22:43;;;;;;;15.1;8.9;;;;;;;;;;;;;
2024/03/01 11:25:07;;;;;;;12.6;7.3;;;;;;;;;;;;;
2024/03/01 11:27:32;;;;;;;13.8;7.4;;;;;;;;;;;;;
2024/03/01 11:29:57;;;;;;;12.8;7.8;;;;;;;;;;;;;
2024/03/01 11:32:23;;;;;;;19.8;10.9;;;;;;;;;;;;;
2024/03/01 11:34:48;;;;;;;12.5;7.7;;;;;;;;;;;;;
2024/03/01 11:37:14;;;;;;;14.3;8.1;;;;;;;;;;;;;
2024/03/01 11:39:38;;;;;;;16;9.2;;;;;;;;;;;;;
2024/03/01 11:42:03;;;;;;;14.6;8.1;;;;;;;;;;;;;
2024/03/01 11:44:28;;;;;;;13.9;8.8;;;;;;;;;;;;;
2024/03/01 11:46:53;;;;;;;14.6;9.6;;;;;;;;;;;;;
2024/03/01 11:49:18;;;;;;;16.8;10.2;;;;;;;;;;;;;
2024/03/01 11:51:44;;;;;;;10.4;6.1;;;;;;;;;;;;;
2024/03/01 11:54:09;;;;;;;12.2;7.6;;;;;;;;;;;;;
2024/03/01 11:56:34;;;;;;;10.4;6.6;;;;;;;;;;;;;
2024/03/01 11:59:35;;;;;;;8.2;5.8;;;;;;;;;;;;;
2024/03/01 12:02:00;;;;;;;9.8;5.7;;;;;;;;;;;;;
2024/03/01 12:04:25;;;;;;;10.2;6.1;;;;;;;;;;;;;
2024/03/01 12:06:51;;;;;;;11.1;5.9;;;;;;;;;;;;;
2024/03/01 12:09:15;;;;;;;9.3;5.8;;;;;;;;;;;;;
2024/03/01 12:11:41;;;;;;;8.2;5.3;;;;;;;;;;;;;
2024/03/01 12:14:05;;;;;;;6.8;5.2;;;;;;;;;;;;;
2024/03/01 12:16:35;;;;;;;9;6;;;;;;;;;;;;;
2024/03/01 12:18:56;;;;;;;9;5.5;;;;;;;;;;;;;
2024/03/01 12:21:21;;;;;;;9.9;6.1;;;;;;;;;;;;;
2024/03/01 12:23:46;;;;;;;7.9;4.6;;;;;;;;;;;;;
2024/03/01 12:26:11;;;;;;;8.3;4.4;;;;;;;;;;;;;
2024/03/01 12:28:36;;;;;;;6.7;4.8;;;;;;;;;;;;;
2024/03/01 12:31:01;;;;;;;7.2;4.2;;;;;;;;;;;;;
2024/03/01 12:33:26;;;;;;;5;3.6;;;;;;;;;;;;;
2024/03/01 12:35:51;;;;;;;7.7;4.2;;;;;;;;;;;;;
2024/03/01 12:38:17;;;;;;;8.3;4.3;;;;;;;;;;;;;
2024/03/01 12:40:42;;;;;;;8.2;4.4;;;;;;;;;;;;;
2024/03/01 12:43:07;;;;;;;6.1;3.9;;;;;;;;;;;;;
2024/03/01 12:45:34;;;;;;;5.1;3.6;;;;;;;;;;;;;
2024/03/01 12:47:59;;;;;;;5.5;3.7;;;;;;;;;;;;;
2024/03/01 12:50:22;;;;;;;5.9;3.9;;;;;;;;;;;;;
2024/03/01 12:52:47;;;;;;;7.3;4.2;;;;;;;;;;;;;
2024/03/01 12:55:12;;;;;;;5.8;3.6;;;;;;;;;;;;;
2024/03/01 12:57:38;;;;;;;7.4;4.1;;;;;;;;;;;;;
2024/03/01 13:00:13;;;;;;;6.8;4.1;;;;;;;;;;;;;
2024/03/01 13:02:28;;;;;;;7.3;4.8;;;;;;;;;;;;;
2024/03/01 13:04:53;;;;;;;5.6;4.2;;;;;;;;;;;;;
2024/03/01 13:07:18;;;;;;;8.8;4.8;;;;;;;;;;;;;
2024/03/01 13:09:43;;;;;;;6.3;4.3;;;;;;;;;;;;;
2024/03/01 13:12:09;;;;;;;7.5;4.8;;;;;;;;;;;;;
2024/03/01 13:14:34;;;;;;;10.8;5.1;;;;;;;;;;;;;
2024/03/01 13:16:58;;;;;;;6.3;4;;;;;;;;;;;;;
2024/03/01 13:19:26;;;;;;;8.8;4.9;;;;;;;;;;;;;
2024/03/01 13:21:49;;;;;;;5.5;3.4;;;;;;;;;;;;;
2024/03/01 13:24:15;;;;;;;6.6;4;;;;;;;;;;;;;
2024/03/01 13:26:39;;;;;;;7.4;4.1;;;;;;;;;;;;;
2024/03/01 13:29:07;;;;;;;7.8;4.3;;;;;;;;;;;;;
2024/03/01 13:31:29;;;;;;;6.5;4.2;;;;;;;;;;;;;
2024/03/01 13:33:54;;;;;;;4.9;3.5;;;;;;;;;;;;;
2024/03/01 13:36:23;;;;;;;4.4;3.4;;;;;;;;;;;;;
2024/03/01 13:38:44;;;;;;;4.6;3.6;;;;;;;;;;;;;
2024/03/01 13:41:09;;;;;;;6;3.7;;;;;;;;;;;;;
2024/03/01 13:43:35;;;;;;;6.6;4;;;;;;;;;;;;;
2024/03/01 13:46:00;;;;;;;6.4;4.1;;;;;;;;;;;;;
2024/03/01 13:48:26;;;;;;;5.9;3.8;;;;;;;;;;;;;
2024/03/01 13:50:50;;;;;;;6.8;4;;;;;;;;;;;;;
2024/03/01 13:53:16;;;;;;;5.6;4;;;;;;;;;;;;;
2024/03/01 13:55:41;;;;;;;6.2;4.3;;;;;;;;;;;;;
2024/03/01 13:58:06;;;;;;;5.8;3.9;;;;;;;;;;;;;
2024/03/01 14:00:31;;;;;;;5.4;3.8;;;;;;;;;;;;;
2024/03/01 14:02:56;;;;;;;5.1;4;;;;;;;;;;;;;
2024/03/01 14:05:22;;;;;;;7.7;4.4;;;;;;;;;;;;;
2024/03/01 14:07:46;;;;;;;6.5;3.8;;;;;;;;;;;;;
2024/03/01 14:10:11;;;;;;;9.3;4.6;;;;;;;;;;;;;
2024/03/01 14:12:36;;;;;;;7.4;4.6;;;;;;;;;;;;;
2024/03/01 14:15:01;;;;;;;6.1;4;;;;;;;;;;;;;
2024/03/01 14:17:26;;;;;;;6;4;;;;;;;;;;;;;
2024/03/01 14:19:52;;;;;;;5.9;4;;;;;;;;;;;;;
2024/03/01 14:22:17;;;;;;;6.6;4.6;;;;;;;;;;;;;
2024/03/01 14:24:42;;;;;;;9.7;5.4;;;;;;;;;;;;;
2024/03/01 14:27:07;;;;;;;5.7;4;;;;;;;;;;;;;
2024/03/01 14:29:32;;;;;;;5.5;4;;;;;;;;;;;;;
2024/03/01 14:31:57;;;;;;;7;4.6;;;;;;;;;;;;;
2024/03/01 14:34:22;;;;;;;7.1;5.3;;;;;;;;;;;;;
2024/03/01 14:36:50;;;;;;;8.4;4.4;;;;;;;;;;;;;
2024/03/01 14:39:13;;;;;;;8.8;4.5;;;;;;;;;;;;;
2024/03/01 14:41:38;;;;;;;6.2;4.5;;;;;;;;;;;;;
2024/03/01 14:44:02;;;;;;;6.8;4.9;;;;;;;;;;;;;
2024/03/01 14:46:27;;;;;;;6.9;4.7;;;;;;;;;;;;;
2024/03/01 14:48:52;;;;;;;9.1;5.8;;;;;;;;;;;;;
2024/03/01 14:51:17;;;;;;;7.5;4.6;;;;;;;;;;;;;
2024/03/01 14:53:45;;;;;;;5.9;4.1;;;;;;;;;;;;;
2024/03/01 14:56:08;;;;;;;5.4;3.8;;;;;;;;;;;;;
2024/03/01 14:58:33;;;;;;;6.6;4.5;;;;;;;;;;;;;
2024/03/01 15:00:58;;;;;;;5.8;4.3;;;;;;;;;;;;;
2024/03/01 15:03:23;;;;;;;6.4;4.4;;;;;;;;;;;;;
2024/03/01 15:05:48;;;;;;;7.9;5.1;;;;;;;;;;;;;
2024/03/01 15:08:13;;;;;;;5.2;4.7;;;;;;;;;;;;;
2024/03/01 15:10:39;;;;;;;8;3.9;;;;;;;;;;;;;
2024/03/01 15:13:06;;;;;;;5.3;3.8;;;;;;;;;;;;;
2024/03/01 15:15:28;;;;;;;4.5;3.6;;;;;;;;;;;;;
2024/03/01 15:17:53;;;;;;;5.6;3.3;;;;;;;;;;;;;
2024/03/01 15:20:20;;;;;;;5.8;4;;;;;;;;;;;;;
2024/03/01 15:22:44;;;;;;;4.8;3.9;;;;;;;;;;;;;
2024/03/01 15:25:10;;;;;;;5.4;4;;;;;;;;;;;;;
2024/03/01 15:27:34;;;;;;;7.6;4.1;;;;;;;;;;;;;
2024/03/01 15:29:59;;;;;;;5.7;3.8;;;;;;;;;;;;;
2024/03/01 15:32:24;;;;;;;5.8;3.9;;;;;;;;;;;;;
2024/03/01 15:34:49;;;;;;;7.1;4.5;;;;;;;;;;;;;
2024/03/01 15:37:15;;;;;;;5.3;3.9;;;;;;;;;;;;;
2024/03/01 15:39:40;;;;;;;5.8;3.9;;;;;;;;;;;;;
2024/03/01 15:42:05;;;;;;;5.6;4.2;;;;;;;;;;;;;
2024/03/01 15:44:30;;;;;;;4.8;3.6;;;;;;;;;;;;;
2024/03/01 15:46:55;;;;;;;5.8;4.4;;;;;;;;;;;;;
2024/03/01 15:49:20;;;;;;;6.2;4.5;;;;;;;;;;;;;
2024/03/01 15:51:45;;;;;;;5.8;4.5;;;;;;;;;;;;;
2024/03/01 15:54:10;;;;;;;7;4.4;;;;;;;;;;;;;
2024/03/01 15:56:35;;;;;;;6.4;4.5;;;;;;;;;;;;;
2024/03/01 15:59:01;;;;;;;4.5;3.7;;;;;;;;;;;;;
2024/03/01 16:01:26;;;;;;;4.4;3.6;;;;;;;;;;;;;
2024/03/01 16:03:51;;;;;;;5.3;3.6;;;;;;;;;;;;;
2024/03/01 16:06:18;;;;;;;5.9;4.1;;;;;;;;;;;;;
2024/03/01 16:08:41;;;;;;;6;4.2;;;;;;;;;;;;;
2024/03/01 16:11:07;;;;;;;7.6;5.3;;;;;;;;;;;;;
2024/03/01 16:13:31;;;;;;;5.5;4.1;;;;;;;;;;;;;
2024/03/01 16:15:57;;;;;;;5.5;4.2;;;;;;;;;;;;;
2024/03/01 16:18:21;;;;;;;5.5;4;;;;;;;;;;;;;
2024/03/01 16:20:46;;;;;;;5.8;3.9;;;;;;;;;;;;;
2024/03/01 16:23:12;;;;;;;5;3.6;;;;;;;;;;;;;
2024/03/01 16:25:37;;;;;;;6.4;4;;;;;;;;;;;;;
2024/03/01 16:28:02;;;;;;;5.7;3.9;;;;;;;;;;;;;
2024/03/01 16:30:28;;;;;;;7.2;5;;;;;;;;;;;;;
2024/03/01 16:32:52;;;;;;;7.8;4.9;;;;;;;;;;;;;
2024/03/01 16:35:17;;;;;;;5.8;3.9;;;;;;;;;;;;;
2024/03/01 16:37:43;;;;;;;5.3;4;;;;;;;;;;;;;
2024/03/01 16:40:10;;;;;;;5.8;4.3;;;;;;;;;;;;;
2024/03/01 16:42:33;;;;;;;5.5;3.7;;;;;;;;;;;;;
2024/03/01 16:44:58;;;;;;;7.1;4.2;;;;;;;;;;;;;
2024/03/01 16:47:23;;;;;;;7.3;4.4;;;;;;;;;;;;;
2024/03/01 16:49:49;;;;;;;6;4.3;;;;;;;;;;;;;
2024/03/01 16:52:13;;;;;;;6.1;4;;;;;;;;;;;;;
2024/03/01 16:54:38;;;;;;;8.3;4.4;;;;;;;;;;;;;
2024/03/01 16:57:03;;;;;;;6.2;4.4;;;;;;;;;;;;;
2024/03/01 16:59:29;;;;;;;7.1;4.6;;;;;;;;;;;;;
2024/03/01 17:01:54;;;;;;;5.9;4.8;;;;;;;;;;;;;
2024/03/01 17:04:20;;;;;;;6.5;4.2;;;;;;;;;;;;;
2024/03/01 17:06:44;;;;;;;8.2;5.6;;;;;;;;;;;;;
2024/03/01 17:09:12;;;;;;;10.3;7.5;;;;;;;;;;;;;
2024/03/01 17:11:35;;;;;;;10.4;7.2;;;;;;;;;;;;;
2024/03/01 17:13:59;;;;;;;7.2;5.4;;;;;;;;;;;;;
2024/03/01 17:16:25;;;;;;;9.4;5.6;;;;;;;;;;;;;
2024/03/01 17:18:50;;;;;;;7.9;5.2;;;;;;;;;;;;;
2024/03/01 17:21:15;;;;;;;8.9;5.9;;;;;;;;;;;;;
2024/03/01 17:23:40;;;;;;;6.4;5.1;;;;;;;;;;;;;
2024/03/01 17:26:06;;;;;;;7.5;5.2;;;;;;;;;;;;;
2024/03/01 17:28:30;;;;;;;14.4;10.5;;;;;;;;;;;;;
2024/03/01 17:30:55;;;;;;;21.7;16.4;;;;;;;;;;;;;
2024/03/01 17:33:20;;;;;;;10.2;7.9;;;;;;;;;;;;;
2024/03/01 17:35:45;;;;;;;7.6;5.7;;;;;;;;;;;;;
2024/03/01 17:38:10;;;;;;;9.2;6.5;;;;;;;;;;;;;
2024/03/01 17:40:35;;;;;;;8.9;5.6;;;;;;;;;;;;;
2024/03/01 17:43:00;;;;;;;19.1;11.6;;;;;;;;;;;;;
2024/03/01 17:45:26;;;;;;;63.6;31.3;;;;;;;;;;;;;
2024/03/01 17:47:51;;;;;;;45.8;23.9;;;;;;;;;;;;;
2024/03/01 17:50:16;;;;;;;45.4;26;;;;;;;;;;;;;
2024/03/01 17:52:41;;;;;;;17.4;12.2;;;;;;;;;;;;;
2024/03/01 17:55:06;;;;;;;8.8;6;;;;;;;;;;;;;
2024/03/01 17:57:31;;;;;;;6.8;5.1;;;;;;;;;;;;;
2024/03/01 17:59:56;;;;;;;7.6;5.1;;;;;;;;;;;;;
2024/03/01 18:02:21;;;;;;;8.1;5.4;;;;;;;;;;;;;
2024/03/01 18:04:48;;;;;;;12.2;7.9;;;;;;;;;;;;;
2024/03/01 18:07:12;;;;;;;15;8.4;;;;;;;;;;;;;
2024/03/01 18:09:37;;;;;;;11.1;7;;;;;;;;;;;;;
2024/03/01 18:12:02;;;;;;;11.6;7.6;;;;;;;;;;;;;
2024/03/01 18:14:27;;;;;;;15.9;9.5;;;;;;;;;;;;;
2024/03/01 18:16:52;;;;;;;13.6;8;;;;;;;;;;;;;
2024/03/01 18:19:17;;;;;;;16.5;10;;;;;;;;;;;;;
2024/03/01 18:21:43;;;;;;;14.7;9.8;;;;;;;;;;;;;
2024/03/01 18:24:08;;;;;;;23.6;15.4;;;;;;;;;;;;;
2024/03/01 18:26:33;;;;;;;15.2;9.5;;;;;;;;;;;;;
2024/03/01 18:28:58;;;;;;;11.2;7.1;;;;;;;;;;;;;
2024/03/01 18:31:23;;;;;;;7.4;5.6;;;;;;;;;;;;;
2024/03/01 18:33:49;;;;;;;9.3;6.5;;;;;;;;;;;;;
2024/03/01 18:36:14;;;;;;;7.4;5.9;;;;;;;;;;;;;
2024/03/01 18:38:39;;;;;;;7.8;6.1;;;;;;;;;;;;;
2024/03/01 18:41:04;;;;;;;5.7;4.6;;;;;;;;;;;;;
2024/03/01 18:43:29;;;;;;;6.4;5;;;;;;;;;;;;;
2024/03/01 18:45:54;;;;;;;5.9;4.9;;;;;;;;;;;;;
2024/03/01 18:48:19;;;;;;;6.1;5.3;;;;;;;;;;;;;
2024/03/01 18:50:44;;;;;;;5.6;4.1;;;;;;;;;;;;;
2024/03/01 18:53:09;;;;;;;5.3;4.1;;;;;;;;;;;;;
2024/03/01 18:55:35;;;;;;;5.2;4.1;;;;;;;;;;;;;
2024/03/01 18:57:59;;;;;;;4.8;3.5;;;;;;;;;;;;;
2024/03/01 19:00:25;;;;;;;5;3.6;;;;;;;;;;;;;
2024/03/01 19:02:50;;;;;;;4;3.3;;;;;;;;;;;;;
2024/03/01 19:05:15;;;;;;;5.1;3.6;;;;;;;;;;;;;
2024/03/01 19:07:40;;;;;;;4.2;3.3;;;;;;;;;;;;;
2024/03/01 19:10:06;;;;;;;4.8;3.3;;;;;;;;;;;;;
2024/03/01 19:12:30;;;;;;;4.3;3.4;;;;;;;;;;;;;
2024/03/01 19:14:57;;;;;;;4.1;3.5;;;;;;;;;;;;;
2024/03/01 19:17:21;;;;;;;3.5;3.1;;;;;;;;;;;;;
2024/03/01 19:19:46;;;;;;;3.5;3;;;;;;;;;;;;;
2024/03/01 19:22:11;;;;;;;4.2;3.1;;;;;;;;;;;;;
2024/03/01 19:24:36;;;;;;;3.8;2.9;;;;;;;;;;;;;
2024/03/01 19:27:01;;;;;;;3.4;3.1;;;;;;;;;;;;;
2024/03/01 19:29:26;;;;;;;3.4;3;;;;;;;;;;;;;
2024/03/01 19:31:51;;;;;;;3.1;2.8;;;;;;;;;;;;;
2024/03/01 19:34:17;;;;;;;3.7;3;;;;;;;;;;;;;
2024/03/01 19:36:43;;;;;;;3.1;2.8;;;;;;;;;;;;;
2024/03/01 19:39:10;;;;;;;3.7;3;;;;;;;;;;;;;
2024/03/01 19:41:32;;;;;;;3.2;2.9;;;;;;;;;;;;;
2024/03/01 19:43:57;;;;;;;3.8;2.9;;;;;;;;;;;;;
2024/03/01 19:46:22;;;;;;;3.3;2.7;;;;;;;;;;;;;
2024/03/01 19:48:47;;;;;;;3.3;2.5;;;;;;;;;;;;;
2024/03/01 19:51:13;;;;;;;3.9;3;;;;;;;;;;;;;
2024/03/01 19:53:37;;;;;;;3.3;3;;;;;;;;;;;;;
2024/03/01 19:56:02;;;;;;;5.6;3.5;;;;;;;;;;;;;
2024/03/01 19:58:27;;;;;;;3.6;3.2;;;;;;;;;;;;;
2024/03/01 20:00:52;;;;;;;3.5;2.9;;;;;;;;;;;;;
2024/03/01 20:03:19;;;;;;;3.2;2.9;;;;;;;;;;;;;
2024/03/01 20:05:44;;;;;;;3.9;3.5;;;;;;;;;;;;;
2024/03/01 20:08:39;;;;;;;3.4;3.1;;;;;;;;;;;;;
2024/03/01 20:11:12;;;;;;;3.4;3;;;;;;;;;;;;;
2024/03/01 20:13:46;;;;;;;3.8;2.7;;;;;;;;;;;;;
2024/03/01 20:16:19;;;;;;;3;2.7;;;;;;;;;;;;;
2024/03/01 20:18:53;;;;;;;3.1;2.8;;;;;;;;;;;;;
2024/03/01 20:21:25;;;;;;;3.1;2.8;;;;;;;;;;;;;
2024/03/01 20:23:58;;;;;;;3.9;3;;;;;;;;;;;;;